Woolly Bugger, West Virginia
Current Conditions -  °F | °C
As of 12:53 PM on Friday 24 Oct 2014 (Local Time) from KMRB Reporting Station
Clear Clear  
Wind Chill: 64°   Ceiling: Unl
Heat Index: 64°   Visibility: 10mi
Dew Point: 34°   Wind: 14mph
Humidity: 33%   Direction: 310°NW
Pressure: 29.98"   Gusts: NA
Location:  39.3053°N, 77.8555°W
Report Text: KMRB 241653Z 31012KT 10SM CLR 18/01 A2998 RMK AO2 SLP151 T01780011
Loading
Personal Weather Stations






























Interactive Weather Map
Tropical Storm Tracking
New forecast layout! Learn more

10-Day Weather Forecast

Advertisements
Track Severe Weather on mobile